sensor_id;sensor_type;location;lat;lon;timestamp;pressure;altitude;pressure_sealevel;temperature;humidity
74327;BME280;62745;51.060;13.786;2023-04-03T00:02:12;101340.72;;;2.64;68.43
74327;BME280;62745;51.060;13.786;2023-04-03T00:04:37;101347.53;;;2.55;68.22
74327;BME280;62745;51.060;13.786;2023-04-03T00:07:02;101336.69;;;2.47;68.77
74327;BME280;62745;51.060;13.786;2023-04-03T00:09:27;101349.16;;;2.45;70.00
74327;BME280;62745;51.060;13.786;2023-04-03T00:11:53;101350.09;;;2.44;69.45
74327;BME280;62745;51.060;13.786;2023-04-03T00:14:18;101345.06;;;2.41;69.05
74327;BME280;62745;51.060;13.786;2023-04-03T00:16:44;101352.13;;;2.40;68.62
74327;BME280;62745;51.060;13.786;2023-04-03T00:19:09;101360.59;;;2.33;69.00
74327;BME280;62745;51.060;13.786;2023-04-03T00:21:36;101356.69;;;2.38;69.80
74327;BME280;62745;51.060;13.786;2023-04-03T00:24:02;101361.53;;;2.32;69.51
74327;BME280;62745;51.060;13.786;2023-04-03T00:26:27;101366.94;;;2.30;69.10
74327;BME280;62745;51.060;13.786;2023-04-03T00:28:52;101375.78;;;2.29;68.84
74327;BME280;62745;51.060;13.786;2023-04-03T00:31:18;101374.84;;;2.30;68.66
74327;BME280;62745;51.060;13.786;2023-04-03T00:33:43;101377.31;;;2.21;69.23
74327;BME280;62745;51.060;13.786;2023-04-03T00:36:10;101371.09;;;2.22;69.25
74327;BME280;62745;51.060;13.786;2023-04-03T00:38:36;101375.44;;;2.10;68.75
74327;BME280;62745;51.060;13.786;2023-04-03T00:41:02;101389.44;;;2.23;68.21
74327;BME280;62745;51.060;13.786;2023-04-03T00:43:27;101389.75;;;2.19;69.62
74327;BME280;62745;51.060;13.786;2023-04-03T00:45:54;101383.59;;;2.31;69.34
74327;BME280;62745;51.060;13.786;2023-04-03T00:48:23;101389.09;;;2.28;69.36
74327;BME280;62745;51.060;13.786;2023-04-03T00:50:50;101386.41;;;2.40;69.23
74327;BME280;62745;51.060;13.786;2023-04-03T00:53:19;101386.69;;;2.25;68.93
74327;BME280;62745;51.060;13.786;2023-04-03T00:55:47;101389.09;;;2.28;68.64
74327;BME280;62745;51.060;13.786;2023-04-03T00:58:15;101393.63;;;2.26;69.17
74327;BME280;62745;51.060;13.786;2023-04-03T01:00:44;101390.22;;;2.60;68.81
74327;BME280;62745;51.060;13.786;2023-04-03T01:03:11;101395.88;;;2.67;68.08
74327;BME280;62745;51.060;13.786;2023-04-03T01:05:37;101399.47;;;2.66;68.70
74327;BME280;62745;51.060;13.786;2023-04-03T01:08:03;101404.97;;;2.63;68.03
74327;BME280;62745;51.060;13.786;2023-04-03T01:10:28;101409.06;;;2.67;69.06
74327;BME280;62745;51.060;13.786;2023-04-03T01:12:54;101405.44;;;2.57;68.16
74327;BME280;62745;51.060;13.786;2023-04-03T01:15:23;101412.22;;;2.72;68.65
74327;BME280;62745;51.060;13.786;2023-04-03T01:17:54;101405.47;;;2.44;68.57
74327;BME280;62745;51.060;13.786;2023-04-03T01:25:47;101421.09;;;2.10;68.80
74327;BME280;62745;51.060;13.786;2023-04-03T01:31:08;101420.44;;;2.56;69.38
74327;BME280;62745;51.060;13.786;2023-04-03T01:33:37;101429.22;;;2.68;67.72
74327;BME280;62745;51.060;13.786;2023-04-03T01:36:03;101431.94;;;2.55;69.19
74327;BME280;62745;51.060;13.786;2023-04-03T01:38:29;101438.09;;;2.43;68.08
74327;BME280;62745;51.060;13.786;2023-04-03T01:40:54;101432.53;;;2.59;68.51
74327;BME280;62745;51.060;13.786;2023-04-03T01:43:19;101439.25;;;2.39;67.87
74327;BME280;62745;51.060;13.786;2023-04-03T01:45:45;101438.72;;;2.34;68.63
74327;BME280;62745;51.060;13.786;2023-04-03T01:48:12;101446.13;;;2.29;69.46
74327;BME280;62745;51.060;13.786;2023-04-03T01:50:37;101444.78;;;2.23;68.79
74327;BME280;62745;51.060;13.786;2023-04-03T01:53:02;101447.28;;;1.88;69.14
74327;BME280;62745;51.060;13.786;2023-04-03T01:55:27;101453.78;;;1.83;70.18
74327;BME280;62745;51.060;13.786;2023-04-03T01:57:53;101448.94;;;1.64;69.38
74327;BME280;62745;51.060;13.786;2023-04-03T02:00:18;101454.53;;;1.85;70.23
74327;BME280;62745;51.060;13.786;2023-04-03T02:02:43;101459.50;;;2.02;70.20
74327;BME280;62745;51.060;13.786;2023-04-03T02:05:09;101451.69;;;1.75;68.09
74327;BME280;62745;51.060;13.786;2023-04-03T02:07:34;101450.22;;;1.71;69.22
74327;BME280;62745;51.060;13.786;2023-04-03T02:10:00;101464.88;;;1.75;67.96
74327;BME280;62745;51.060;13.786;2023-04-03T02:12:25;101474.56;;;1.87;67.75
74327;BME280;62745;51.060;13.786;2023-04-03T02:14:50;101468.53;;;2.10;69.43
74327;BME280;62745;51.060;13.786;2023-04-03T02:17:15;101469.41;;;1.86;68.90
74327;BME280;62745;51.060;13.786;2023-04-03T02:19:41;101464.47;;;1.68;70.58
74327;BME280;62745;51.060;13.786;2023-04-03T02:22:06;101472.09;;;1.33;71.07
74327;BME280;62745;51.060;13.786;2023-04-03T02:24:32;101471.47;;;1.42;72.36
74327;BME280;62745;51.060;13.786;2023-04-03T02:26:57;101471.19;;;1.72;70.67
74327;BME280;62745;51.060;13.786;2023-04-03T02:29:22;101472.03;;;1.60;70.72
74327;BME280;62745;51.060;13.786;2023-04-03T02:31:48;101477.91;;;1.64;70.74
74327;BME280;62745;51.060;13.786;2023-04-03T02:34:13;101484.25;;;1.61;70.17
74327;BME280;62745;51.060;13.786;2023-04-03T02:36:39;101477.63;;;1.56;71.03
74327;BME280;62745;51.060;13.786;2023-04-03T02:39:04;101482.34;;;1.63;70.67
74327;BME280;62745;51.060;13.786;2023-04-03T02:41:30;101488.44;;;1.64;70.03
74327;BME280;62745;51.060;13.786;2023-04-03T02:44:01;101485.16;;;1.47;71.17
74327;BME280;62745;51.060;13.786;2023-04-03T02:46:26;101488.09;;;1.30;71.03
74327;BME280;62745;51.060;13.786;2023-04-03T02:48:52;101492.28;;;1.33;71.14
74327;BME280;62745;51.060;13.786;2023-04-03T02:51:17;101499.25;;;1.34;71.64
74327;BME280;62745;51.060;13.786;2023-04-03T02:53:42;101494.09;;;1.19;70.71
74327;BME280;62745;51.060;13.786;2023-04-03T02:56:08;101489.09;;;1.15;72.48
74327;BME280;62745;51.060;13.786;2023-04-03T02:58:33;101496.41;;;0.97;73.49
74327;BME280;62745;51.060;13.786;2023-04-03T03:00:58;101495.06;;;0.77;72.46
74327;BME280;62745;51.060;13.786;2023-04-03T03:03:24;101504.94;;;0.74;73.53
74327;BME280;62745;51.060;13.786;2023-04-03T03:05:49;101500.28;;;0.92;73.19
74327;BME280;62745;51.060;13.786;2023-04-03T03:08:14;101492.75;;;0.73;73.26
74327;BME280;62745;51.060;13.786;2023-04-03T03:10:40;101509.31;;;0.60;73.40
74327;BME280;62745;51.060;13.786;2023-04-03T03:13:05;101510.94;;;0.35;73.99
74327;BME280;62745;51.060;13.786;2023-04-03T03:15:30;101509.81;;;0.39;75.30
74327;BME280;62745;51.060;13.786;2023-04-03T03:17:56;101501.81;;;0.40;73.93
74327;BME280;62745;51.060;13.786;2023-04-03T03:20:21;101512.25;;;0.27;74.98
74327;BME280;62745;51.060;13.786;2023-04-03T03:22:46;101514.97;;;0.40;75.59
74327;BME280;62745;51.060;13.786;2023-04-03T03:25:11;101517.22;;;0.32;74.81
74327;BME280;62745;51.060;13.786;2023-04-03T03:27:37;101516.47;;;0.44;75.41
74327;BME280;62745;51.060;13.786;2023-04-03T03:30:03;101515.44;;;0.33;76.66
74327;BME280;62745;51.060;13.786;2023-04-03T03:32:28;101514.13;;;0.11;76.21
74327;BME280;62745;51.060;13.786;2023-04-03T03:34:53;101511.88;;;-0.23;76.89
74327;BME280;62745;51.060;13.786;2023-04-03T03:37:18;101522.28;;;-0.08;76.99
74327;BME280;62745;51.060;13.786;2023-04-03T03:39:44;101517.59;;;-0.31;76.86
74327;BME280;62745;51.060;13.786;2023-04-03T03:42:09;101515.53;;;-0.12;78.75
74327;BME280;62745;51.060;13.786;2023-04-03T03:44:34;101514.78;;;-0.14;77.59
74327;BME280;62745;51.060;13.786;2023-04-03T03:46:59;101524.72;;;-0.19;78.62
74327;BME280;62745;51.060;13.786;2023-04-03T03:49:25;101519.19;;;-0.28;79.13
74327;BME280;62745;51.060;13.786;2023-04-03T03:51:50;101520.50;;;-0.51;78.31
74327;BME280;62745;51.060;13.786;2023-04-03T03:54:15;101519.72;;;-0.38;77.97
74327;BME280;62745;51.060;13.786;2023-04-03T03:56:41;101529.78;;;-0.60;79.46
74327;BME280;62745;51.060;13.786;2023-04-03T03:59:06;101514.38;;;-0.50;78.92
74327;BME280;62745;51.060;13.786;2023-04-03T04:01:31;101524.69;;;-0.47;78.46
74327;BME280;62745;51.060;13.786;2023-04-03T04:03:57;101529.22;;;-0.65;79.60
74327;BME280;62745;51.060;13.786;2023-04-03T04:06:22;101522.56;;;-0.56;79.28
74327;BME280;62745;51.060;13.786;2023-04-03T04:08:47;101521.63;;;-0.55;79.80
74327;BME280;62745;51.060;13.786;2023-04-03T04:11:13;101526.69;;;-0.67;79.51
74327;BME280;62745;51.060;13.786;2023-04-03T04:13:38;101526.69;;;-0.67;79.03
74327;BME280;62745;51.060;13.786;2023-04-03T04:16:04;101528.63;;;-0.70;79.39
74327;BME280;62745;51.060;13.786;2023-04-03T04:18:30;101529.63;;;-0.73;80.01
74327;BME280;62745;51.060;13.786;2023-04-03T04:20:55;101535.50;;;-0.53;79.74
74327;BME280;62745;51.060;13.786;2023-04-03T04:23:21;101537.66;;;-0.60;79.62
74327;BME280;62745;51.060;13.786;2023-04-03T04:25:47;101538.63;;;-0.77;81.47
74327;BME280;62745;51.060;13.786;2023-04-03T04:28:13;101548.47;;;-0.80;80.75
74327;BME280;62745;51.060;13.786;2023-04-03T04:30:38;101545.63;;;-0.62;80.34
74327;BME280;62745;51.060;13.786;2023-04-03T04:33:04;101553.31;;;-0.28;79.63
74327;BME280;62745;51.060;13.786;2023-04-03T04:35:30;101559.63;;;-0.47;79.68
74327;BME280;62745;51.060;13.786;2023-04-03T04:37:55;101559.09;;;-0.38;80.10
74327;BME280;62745;51.060;13.786;2023-04-03T04:40:20;101559.00;;;-0.36;79.36
74327;BME280;62745;51.060;13.786;2023-04-03T04:42:46;101563.81;;;-0.58;79.44
74327;BME280;62745;51.060;13.786;2023-04-03T04:45:11;101563.16;;;-0.62;80.76
74327;BME280;62745;51.060;13.786;2023-04-03T04:47:37;101570.69;;;-0.72;81.01
74327;BME280;62745;51.060;13.786;2023-04-03T04:50:02;101577.41;;;-0.52;81.08
74327;BME280;62745;51.060;13.786;2023-04-03T04:52:27;101573.84;;;-0.51;81.09
74327;BME280;62745;51.060;13.786;2023-04-03T04:54:53;101577.06;;;-0.46;80.89
74327;BME280;62745;51.060;13.786;2023-04-03T04:57:18;101574.34;;;-0.90;81.55
74327;BME280;62745;51.060;13.786;2023-04-03T04:59:43;101584.00;;;-0.91;82.31
74327;BME280;62745;51.060;13.786;2023-04-03T05:02:08;101589.13;;;-0.57;82.04
74327;BME280;62745;51.060;13.786;2023-04-03T05:04:34;101592.97;;;-0.79;82.52
74327;BME280;62745;51.060;13.786;2023-04-03T05:06:59;101588.19;;;-0.56;82.09
74327;BME280;62745;51.060;13.786;2023-04-03T05:09:24;101590.16;;;-0.60;81.66
74327;BME280;62745;51.060;13.786;2023-04-03T05:11:50;101588.00;;;-0.53;83.00
74327;BME280;62745;51.060;13.786;2023-04-03T05:14:16;101583.56;;;-0.37;83.36
74327;BME280;62745;51.060;13.786;2023-04-03T05:16:41;101585.16;;;-0.35;81.70
74327;BME280;62745;51.060;13.786;2023-04-03T05:19:06;101592.31;;;-0.22;81.52
74327;BME280;62745;51.060;13.786;2023-04-03T05:21:31;101590.53;;;-0.22;80.90
74327;BME280;62745;51.060;13.786;2023-04-03T05:24:01;101587.72;;;-0.33;85.90
74327;BME280;62745;51.060;13.786;2023-04-03T05:26:28;101598.03;;;-0.30;85.28
74327;BME280;62745;51.060;13.786;2023-04-03T05:28:53;101594.25;;;-0.10;87.58
74327;BME280;62745;51.060;13.786;2023-04-03T05:31:18;101598.09;;;-0.16;81.57
74327;BME280;62745;51.060;13.786;2023-04-03T05:33:43;101592.72;;;-0.14;83.53
74327;BME280;62745;51.060;13.786;2023-04-03T05:36:09;101601.94;;;-0.07;80.86
74327;BME280;62745;51.060;13.786;2023-04-03T05:38:34;101599.13;;;-0.04;81.16
74327;BME280;62745;51.060;13.786;2023-04-03T05:40:59;101595.78;;;0.08;82.17
74327;BME280;62745;51.060;13.786;2023-04-03T05:43:25;101604.22;;;0.13;83.54
74327;BME280;62745;51.060;13.786;2023-04-03T05:45:51;101609.56;;;0.12;81.36
74327;BME280;62745;51.060;13.786;2023-04-03T05:48:17;101602.63;;;0.11;79.86
74327;BME280;62745;51.060;13.786;2023-04-03T05:50:42;101597.25;;;-0.02;80.31
74327;BME280;62745;51.060;13.786;2023-04-03T05:53:17;101603.28;;;0.14;80.89
74327;BME280;62745;51.060;13.786;2023-04-03T05:55:43;101606.75;;;0.15;83.18
74327;BME280;62745;51.060;13.786;2023-04-03T05:58:09;101608.34;;;0.32;81.47
74327;BME280;62745;51.060;13.786;2023-04-03T06:00:34;101610.88;;;0.33;79.79
74327;BME280;62745;51.060;13.786;2023-04-03T06:02:59;101595.38;;;0.14;85.15
74327;BME280;62745;51.060;13.786;2023-04-03T06:05:25;101613.06;;;0.41;80.11
74327;BME280;62745;51.060;13.786;2023-04-03T06:07:50;101611.47;;;0.24;78.72
74327;BME280;62745;51.060;13.786;2023-04-03T06:10:15;101617.28;;;0.43;79.15
74327;BME280;62745;51.060;13.786;2023-04-03T06:12:41;101620.56;;;0.61;78.58
74327;BME280;62745;51.060;13.786;2023-04-03T06:15:07;101619.06;;;0.43;78.97
74327;BME280;62745;51.060;13.786;2023-04-03T06:17:35;101619.16;;;0.41;78.13
74327;BME280;62745;51.060;13.786;2023-04-03T06:20:01;101619.09;;;0.57;78.74
74327;BME280;62745;51.060;13.786;2023-04-03T06:22:26;101624.88;;;0.90;78.33
74327;BME280;62745;51.060;13.786;2023-04-03T06:24:54;101624.69;;;0.94;77.92
74327;BME280;62745;51.060;13.786;2023-04-03T06:27:19;101627.13;;;0.97;76.69
74327;BME280;62745;51.060;13.786;2023-04-03T06:29:45;101629.47;;;1.01;76.75
74327;BME280;62745;51.060;13.786;2023-04-03T06:32:10;101635.63;;;1.14;76.20
74327;BME280;62745;51.060;13.786;2023-04-03T06:34:36;101628.75;;;1.26;79.97
74327;BME280;62745;51.060;13.786;2023-04-03T06:37:02;101634.81;;;1.41;75.88
74327;BME280;62745;51.060;13.786;2023-04-03T06:39:27;101634.41;;;1.47;74.96
74327;BME280;62745;51.060;13.786;2023-04-03T06:41:52;101639.00;;;1.58;73.78
74327;BME280;62745;51.060;13.786;2023-04-03T06:44:18;101640.00;;;1.82;73.77
74327;BME280;62745;51.060;13.786;2023-04-03T06:46:44;101644.03;;;2.00;77.54
74327;BME280;62745;51.060;13.786;2023-04-03T06:49:11;101642.91;;;2.04;72.81
74327;BME280;62745;51.060;13.786;2023-04-03T06:51:36;101640.28;;;2.04;73.03
74327;BME280;62745;51.060;13.786;2023-04-03T06:54:04;101647.19;;;1.93;72.54
74327;BME280;62745;51.060;13.786;2023-04-03T06:56:30;101649.63;;;1.96;71.68
74327;BME280;62745;51.060;13.786;2023-04-03T06:58:56;101645.56;;;1.77;72.94
74327;BME280;62745;51.060;13.786;2023-04-03T07:01:24;101630.50;;;1.79;74.99
74327;BME280;62745;51.060;13.786;2023-04-03T07:03:50;101648.06;;;2.06;74.29
74327;BME280;62745;51.060;13.786;2023-04-03T07:06:16;101651.97;;;2.13;72.90
74327;BME280;62745;51.060;13.786;2023-04-03T07:08:42;101660.13;;;2.48;75.93
74327;BME280;62745;51.060;13.786;2023-04-03T07:11:09;101660.44;;;2.56;75.49
74327;BME280;62745;51.060;13.786;2023-04-03T07:13:35;101666.91;;;2.52;71.22
74327;BME280;62745;51.060;13.786;2023-04-03T07:16:01;101662.34;;;2.54;75.49
74327;BME280;62745;51.060;13.786;2023-04-03T07:18:28;101666.69;;;2.55;73.84
74327;BME280;62745;51.060;13.786;2023-04-03T07:20:53;101674.38;;;2.58;74.12
74327;BME280;62745;51.060;13.786;2023-04-03T07:23:19;101669.59;;;2.51;75.05
74327;BME280;62745;51.060;13.786;2023-04-03T07:25:45;101672.56;;;2.46;74.66
74327;BME280;62745;51.060;13.786;2023-04-03T07:28:12;101675.63;;;2.65;73.81
74327;BME280;62745;51.060;13.786;2023-04-03T07:30:45;101681.63;;;2.80;73.07
74327;BME280;62745;51.060;13.786;2023-04-03T07:33:11;101681.22;;;2.48;71.13
74327;BME280;62745;51.060;13.786;2023-04-03T07:35:37;101683.00;;;2.22;69.29
74327;BME280;62745;51.060;13.786;2023-04-03T07:38:02;101686.91;;;2.42;74.28
74327;BME280;62745;51.060;13.786;2023-04-03T07:40:28;101673.94;;;2.52;74.24
74327;BME280;62745;51.060;13.786;2023-04-03T07:42:53;101691.25;;;2.81;71.73
74327;BME280;62745;51.060;13.786;2023-04-03T07:45:18;101695.47;;;2.84;71.52
74327;BME280;62745;51.060;13.786;2023-04-03T07:47:44;101692.06;;;2.94;70.46
74327;BME280;62745;51.060;13.786;2023-04-03T07:50:10;101689.78;;;2.64;70.60
74327;BME280;62745;51.060;13.786;2023-04-03T07:52:35;101692.31;;;2.66;70.77
74327;BME280;62745;51.060;13.786;2023-04-03T07:55:00;101691.25;;;2.81;71.78
74327;BME280;62745;51.060;13.786;2023-04-03T07:57:25;101687.97;;;2.90;71.06
74327;BME280;62745;51.060;13.786;2023-04-03T07:59:51;101700.72;;;2.96;70.97
74327;BME280;62745;51.060;13.786;2023-04-03T08:02:16;101700.22;;;3.04;72.00
74327;BME280;62745;51.060;13.786;2023-04-03T08:04:41;101696.41;;;3.08;71.65
74327;BME280;62745;51.060;13.786;2023-04-03T08:07:06;101693.66;;;2.97;70.70
74327;BME280;62745;51.060;13.786;2023-04-03T08:09:35;101700.41;;;3.01;68.88
74327;BME280;62745;51.060;13.786;2023-04-03T08:12:00;101696.28;;;3.22;68.65
74327;BME280;62745;51.060;13.786;2023-04-03T08:14:26;101694.53;;;3.34;68.41
74327;BME280;62745;51.060;13.786;2023-04-03T08:16:51;101695.53;;;3.20;69.05
74327;BME280;62745;51.060;13.786;2023-04-03T08:19:17;101692.81;;;3.46;68.59
74327;BME280;62745;51.060;13.786;2023-04-03T08:21:43;101699.78;;;3.47;67.04
74327;BME280;62745;51.060;13.786;2023-04-03T08:24:08;101702.72;;;3.55;71.65
74327;BME280;62745;51.060;13.786;2023-04-03T08:26:34;101695.69;;;3.67;67.80
74327;BME280;62745;51.060;13.786;2023-04-03T08:29:00;101699.22;;;4.02;66.73
74327;BME280;62745;51.060;13.786;2023-04-03T08:31:25;101692.94;;;3.92;66.44
74327;BME280;62745;51.060;13.786;2023-04-03T08:33:53;101687.81;;;3.78;66.22
74327;BME280;62745;51.060;13.786;2023-04-03T08:36:21;101694.56;;;3.82;65.67
74327;BME280;62745;51.060;13.786;2023-04-03T08:38:48;101698.47;;;3.89;66.05
74327;BME280;62745;51.060;13.786;2023-04-03T08:41:16;101702.88;;;3.65;65.71
74327;BME280;62745;51.060;13.786;2023-04-03T08:44:22;101706.47;;;3.63;65.63
74327;BME280;62745;51.060;13.786;2023-04-03T08:49:33;101694.97;;;3.88;65.81
74327;BME280;62745;51.060;13.786;2023-04-03T08:52:05;101694.69;;;4.15;66.19
74327;BME280;62745;51.060;13.786;2023-04-03T08:54:37;101694.75;;;4.27;64.81
74327;BME280;62745;51.060;13.786;2023-04-03T08:57:06;101692.03;;;4.04;63.92
74327;BME280;62745;51.060;13.786;2023-04-03T08:59:34;101703.88;;;4.34;65.62
74327;BME280;62745;51.060;13.786;2023-04-03T09:02:12;101699.13;;;4.04;66.79
74327;BME280;62745;51.060;13.786;2023-04-03T09:04:45;101699.19;;;4.26;63.54
74327;BME280;62745;51.060;13.786;2023-04-03T09:07:22;101701.34;;;4.32;62.96
74327;BME280;62745;51.060;13.786;2023-04-03T09:09:51;101701.88;;;4.37;65.36
74327;BME280;62745;51.060;13.786;2023-04-03T09:12:33;101698.50;;;4.46;63.79
74327;BME280;62745;51.060;13.786;2023-04-03T09:20:23;101695.75;;;4.48;62.87
74327;BME280;62745;51.060;13.786;2023-04-03T09:22:51;101695.91;;;4.69;62.15
74327;BME280;62745;51.060;13.786;2023-04-03T09:25:32;101693.28;;;4.91;64.48
74327;BME280;62745;51.060;13.786;2023-04-03T09:28:00;101692.91;;;4.96;62.62
74327;BME280;62745;51.060;13.786;2023-04-03T09:30:26;101693.03;;;4.83;58.99
74327;BME280;62745;51.060;13.786;2023-04-03T09:32:54;101690.88;;;4.77;60.85
74327;BME280;62745;51.060;13.786;2023-04-03T09:35:24;101691.16;;;5.51;59.10
74327;BME280;62745;51.060;13.786;2023-04-03T09:37:51;101687.41;;;6.08;58.74
74327;BME280;62745;51.060;13.786;2023-04-03T09:40:38;101680.81;;;6.44;56.26
74327;BME280;62745;51.060;13.786;2023-04-03T09:45:42;101677.41;;;7.23;55.58
74327;BME280;62745;51.060;13.786;2023-04-03T09:50:56;101671.75;;;7.67;53.64
74327;BME280;62745;51.060;13.786;2023-04-03T09:53:40;101673.66;;;7.36;53.19
74327;BME280;62745;51.060;13.786;2023-04-03T09:59:29;101663.94;;;7.06;53.25
74327;BME280;62745;51.060;13.786;2023-04-03T10:01:37;101664.25;;;6.82;51.44
74327;BME280;62745;51.060;13.786;2023-04-03T10:06:44;101666.41;;;6.04;55.49
74327;BME280;62745;51.060;13.786;2023-04-03T10:09:25;101663.56;;;5.96;54.97
74327;BME280;62745;51.060;13.786;2023-04-03T10:11:59;101654.59;;;5.77;53.44
74327;BME280;62745;51.060;13.786;2023-04-03T10:14:31;101656.03;;;5.69;52.88
74327;BME280;62745;51.060;13.786;2023-04-03T10:17:13;101656.22;;;5.57;52.91
74327;BME280;62745;51.060;13.786;2023-04-03T10:25:19;101641.31;;;6.29;50.82
74327;BME280;62745;51.060;13.786;2023-04-03T10:28:02;101648.00;;;6.75;50.53
74327;BME280;62745;51.060;13.786;2023-04-03T10:30:48;101639.56;;;7.01;51.21
74327;BME280;62745;51.060;13.786;2023-04-03T10:41:53;101634.59;;;6.77;48.84
74327;BME280;62745;51.060;13.786;2023-04-03T10:44:37;101639.81;;;6.57;48.79
74327;BME280;62745;51.060;13.786;2023-04-03T10:50:00;101640.16;;;6.43;50.99
74327;BME280;62745;51.060;13.786;2023-04-03T10:52:48;101632.59;;;6.18;50.86
74327;BME280;62745;51.060;13.786;2023-04-03T10:57:54;101632.78;;;6.26;48.71
74327;BME280;62745;51.060;13.786;2023-04-03T11:00:38;101625.66;;;6.47;47.46
74327;BME280;62745;51.060;13.786;2023-04-03T11:03:15;101623.63;;;7.01;46.98
74327;BME280;62745;51.060;13.786;2023-04-03T11:05:50;101621.84;;;7.11;46.52
74327;BME280;62745;51.060;13.786;2023-04-03T11:08:28;101616.34;;;7.91;44.77
74327;BME280;62745;51.060;13.786;2023-04-03T11:10:58;101599.56;;;8.47;44.60
74327;BME280;62745;51.060;13.786;2023-04-03T11:13:59;101608.06;;;8.60;42.42
74327;BME280;62745;51.060;13.786;2023-04-03T11:16:30;101609.25;;;8.38;44.90
74327;BME280;62745;51.060;13.786;2023-04-03T11:19:20;101606.19;;;8.24;43.49
74327;BME280;62745;51.060;13.786;2023-04-03T11:22:36;101602.88;;;7.83;43.48
74327;BME280;62745;51.060;13.786;2023-04-03T11:25:14;101596.84;;;7.52;43.57
74327;BME280;62745;51.060;13.786;2023-04-03T11:27:44;101591.09;;;7.37;45.04
74327;BME280;62745;51.060;13.786;2023-04-03T11:30:23;101606.91;;;7.39;45.04
74327;BME280;62745;51.060;13.786;2023-04-03T11:35:18;101606.41;;;6.95;47.67
74327;BME280;62745;51.060;13.786;2023-04-03T11:37:48;101611.75;;;7.05;47.56
74327;BME280;62745;51.060;13.786;2023-04-03T11:42:47;101604.75;;;7.04;47.77
74327;BME280;62745;51.060;13.786;2023-04-03T11:47:56;101600.91;;;7.37;45.38
74327;BME280;62745;51.060;13.786;2023-04-03T11:52:59;101602.13;;;7.13;48.40
74327;BME280;62745;51.060;13.786;2023-04-03T12:11:15;101611.91;;;7.13;48.00
74327;BME280;62745;51.060;13.786;2023-04-03T12:19:30;101594.28;;;7.12;45.91
74327;BME280;62745;51.060;13.786;2023-04-03T12:24:31;101602.75;;;6.86;46.23
74327;BME280;62745;51.060;13.786;2023-04-03T12:35:10;101597.22;;;6.38;48.49
74327;BME280;62745;51.060;13.786;2023-04-03T12:38:10;101593.47;;;6.71;48.52
74327;BME280;62745;51.060;13.786;2023-04-03T12:43:17;101593.72;;;6.38;47.57
74327;BME280;62745;51.060;13.786;2023-04-03T12:45:47;101597.81;;;6.21;50.50
74327;BME280;62745;51.060;13.786;2023-04-03T12:48:17;101589.75;;;6.22;48.37
74327;BME280;62745;51.060;13.786;2023-04-03T12:50:46;101593.72;;;6.07;49.27
74327;BME280;62745;51.060;13.786;2023-04-03T12:53:18;101593.38;;;6.00;50.52
74327;BME280;62745;51.060;13.786;2023-04-03T12:55:44;101593.91;;;5.94;48.91
74327;BME280;62745;51.060;13.786;2023-04-03T12:58:19;101595.69;;;6.36;48.63
74327;BME280;62745;51.060;13.786;2023-04-03T13:00:45;101582.56;;;6.13;49.32
74327;BME280;62745;51.060;13.786;2023-04-03T13:03:25;101590.47;;;6.03;50.27
74327;BME280;62745;51.060;13.786;2023-04-03T13:05:54;101590.41;;;6.15;48.94
74327;BME280;62745;51.060;13.786;2023-04-03T13:08:22;101597.63;;;6.64;48.59
74327;BME280;62745;51.060;13.786;2023-04-03T13:11:10;101592.59;;;7.01;46.42
74327;BME280;62745;51.060;13.786;2023-04-03T13:13:37;101592.75;;;7.09;46.19
74327;BME280;62745;51.060;13.786;2023-04-03T13:16:11;101583.38;;;7.15;47.04
74327;BME280;62745;51.060;13.786;2023-04-03T13:18:37;101591.47;;;6.94;47.22
74327;BME280;62745;51.060;13.786;2023-04-03T13:21:05;101581.03;;;7.31;46.57
74327;BME280;62745;51.060;13.786;2023-04-03T13:23:34;101583.97;;;7.28;44.28
74327;BME280;62745;51.060;13.786;2023-04-03T13:26:01;101593.97;;;6.96;46.93
74327;BME280;62745;51.060;13.786;2023-04-03T13:28:30;101589.28;;;7.28;46.75
74327;BME280;62745;51.060;13.786;2023-04-03T13:31:17;101574.75;;;7.22;47.99
74327;BME280;62745;51.060;13.786;2023-04-03T13:36:37;101582.06;;;6.50;48.63
74327;BME280;62745;51.060;13.786;2023-04-03T13:41:43;101584.81;;;6.18;51.59
74327;BME280;62745;51.060;13.786;2023-04-03T13:46:40;101579.78;;;6.15;49.56
74327;BME280;62745;51.060;13.786;2023-04-03T13:49:21;101576.34;;;6.03;47.54
74327;BME280;62745;51.060;13.786;2023-04-03T13:51:47;101577.63;;;6.29;49.56
74327;BME280;62745;51.060;13.786;2023-04-03T13:54:19;101571.34;;;7.20;50.86
74327;BME280;62745;51.060;13.786;2023-04-03T13:56:45;101566.38;;;8.32;45.42
74327;BME280;62745;51.060;13.786;2023-04-03T14:01:51;101560.63;;;10.76;39.55
74327;BME280;62745;51.060;13.786;2023-04-03T14:04:21;101556.00;;;10.94;39.51
74327;BME280;62745;51.060;13.786;2023-04-03T14:06:48;101552.41;;;9.12;40.59
74327;BME280;62745;51.060;13.786;2023-04-03T14:09:16;101558.22;;;7.77;44.58
74327;BME280;62745;51.060;13.786;2023-04-03T14:11:42;101563.41;;;6.71;47.44
74327;BME280;62745;51.060;13.786;2023-04-03T14:14:16;101559.97;;;6.40;50.22
74327;BME280;62745;51.060;13.786;2023-04-03T14:16:46;101565.03;;;6.52;47.74
74327;BME280;62745;51.060;13.786;2023-04-03T14:19:33;101574.22;;;6.39;47.78
74327;BME280;62745;51.060;13.786;2023-04-03T14:22:03;101572.41;;;6.49;49.62
74327;BME280;62745;51.060;13.786;2023-04-03T14:24:31;101571.97;;;6.13;48.31
74327;BME280;62745;51.060;13.786;2023-04-03T14:26:57;101570.91;;;6.25;48.88
74327;BME280;62745;51.060;13.786;2023-04-03T14:29:23;101569.56;;;6.10;49.57
74327;BME280;62745;51.060;13.786;2023-04-03T14:31:49;101569.47;;;5.91;47.70
74327;BME280;62745;51.060;13.786;2023-04-03T14:34:15;101577.19;;;6.24;48.41
74327;BME280;62745;51.060;13.786;2023-04-03T14:36:42;101566.75;;;6.32;46.15